createdAt,value
2023-03-05T00:00:30.477Z,100256.44
2023-03-05T00:03:33.609Z,100263.75
2023-03-05T00:06:36.416Z,100260.59
2023-03-05T00:09:40.671Z,100261.84
2023-03-05T00:12:43.335Z,100253.91
2023-03-05T00:15:46.248Z,100257.09
2023-03-05T00:18:49.784Z,100251.34
2023-03-05T00:21:52.725Z,100245.47
2023-03-05T00:24:55.386Z,100241.97
2023-03-05T00:27:58.414Z,100254.03
2023-03-05T00:31:01.610Z,100241.50
2023-03-05T00:34:08.329Z,100245.00
2023-03-05T00:37:11.180Z,100245.94
2023-03-05T00:40:14.405Z,100250.72
2023-03-05T00:43:17.098Z,100244.03
2023-03-05T00:46:20.065Z,100245.47
2023-03-05T00:49:22.674Z,100246.59
2023-03-05T00:52:26.758Z,100247.03
2023-03-05T00:55:29.394Z,100236.56
2023-03-05T00:58:32.400Z,100242.44
2023-03-05T01:01:35.215Z,100240.56
2023-03-05T01:04:38.970Z,100229.88
2023-03-05T01:07:41.657Z,100224.34
2023-03-05T01:10:44.575Z,100223.50
2023-03-05T01:13:47.651Z,100228.91
2023-03-05T01:16:50.573Z,100228.47
2023-03-05T01:19:53.226Z,100220.34
2023-03-05T01:22:56.411Z,100214.91
2023-03-05T01:25:59.830Z,100226.50
2023-03-05T01:29:02.823Z,100225.25
2023-03-05T01:32:05.973Z,100230.13
2023-03-05T01:35:10.970Z,100241.06
2023-03-05T01:38:13.908Z,100240.03
2023-03-05T01:41:18.933Z,100237.13
2023-03-05T01:44:23.561Z,100222.03
2023-03-05T01:47:26.514Z,100229.19
2023-03-05T01:50:29.467Z,100240.78
2023-03-05T01:53:32.420Z,100246.94
2023-03-05T01:56:36.017Z,100254.59
2023-03-05T01:59:42.018Z,100241.03
2023-03-05T02:02:47.722Z,100234.22
2023-03-05T02:05:50.666Z,100238.97
2023-03-05T02:08:53.846Z,100234.47
2023-03-05T02:11:57.399Z,100239.88
2023-03-05T02:15:00.403Z,100243.03
2023-03-05T02:18:03.199Z,100237.66
2023-03-05T02:21:10.832Z,100241.47
2023-03-05T02:24:16.069Z,100242.41
2023-03-05T02:27:23.509Z,100244.84
2023-03-05T02:30:26.622Z,100239.34
2023-03-05T02:33:29.845Z,100236.56
2023-03-05T02:36:32.745Z,100239.72
2023-03-05T02:39:36.719Z,100242.16
2023-03-05T02:42:39.882Z,100249.78
2023-03-05T02:45:43.513Z,100243.75
2023-03-05T02:48:46.193Z,100246.69
2023-03-05T02:51:49.669Z,100226.09
2023-03-05T02:54:53.183Z,100247.41
2023-03-05T02:57:56.161Z,100240.97
2023-03-05T03:00:58.903Z,100242.00
2023-03-05T03:04:01.996Z,100245.44
2023-03-05T03:07:04.827Z,100243.25
2023-03-05T03:10:08.363Z,100218.88
2023-03-05T03:13:11.258Z,100237.31
2023-03-05T03:16:17.009Z,100241.78
2023-03-05T03:19:19.766Z,100238.62
2023-03-05T03:22:22.692Z,100222.19
2023-03-05T03:25:25.302Z,100236.63
2023-03-05T03:28:28.356Z,100240.81
2023-03-05T03:31:30.949Z,100229.88
2023-03-05T03:34:33.973Z,100235.69
2023-03-05T03:37:36.645Z,100221.47
2023-03-05T03:40:41.787Z,100235.75
2023-03-05T03:43:44.406Z,100235.06
2023-03-05T03:46:49.102Z,100226.59
2023-03-05T03:49:55.164Z,100235.12
2023-03-05T03:52:58.053Z,100211.13
2023-03-05T03:56:00.654Z,100238.66
2023-03-05T03:59:04.156Z,100228.94
2023-03-05T04:02:06.922Z,100213.75
2023-03-05T04:05:10.132Z,100227.88
2023-03-05T04:08:12.850Z,100234.44
2023-03-05T04:11:16.130Z,100224.81
2023-03-05T04:14:19.142Z,100228.06
2023-03-05T04:17:22.061Z,100236.28
2023-03-05T04:20:25.003Z,100237.13
2023-03-05T04:23:27.984Z,100215.78
2023-03-05T04:26:30.577Z,100227.09
2023-03-05T04:29:34.639Z,100226.25
2023-03-05T04:32:37.521Z,100224.63
2023-03-05T04:35:40.535Z,100215.47
2023-03-05T04:38:43.373Z,100227.84
2023-03-05T04:41:47.091Z,100227.09
2023-03-05T04:44:50.403Z,100236.16
2023-03-05T04:47:53.349Z,100228.50
2023-03-05T04:50:57.997Z,100219.84
2023-03-05T04:54:01.055Z,100228.19
2023-03-05T04:57:03.935Z,100219.75
2023-03-05T05:00:16.777Z,100230.87
2023-03-05T05:03:19.497Z,100237.37
2023-03-05T05:06:22.510Z,100232.91
2023-03-05T05:09:26.344Z,100245.34
2023-03-05T05:12:30.825Z,100232.72
2023-03-05T05:15:33.486Z,100242.16
2023-03-05T05:18:36.530Z,100217.16
2023-03-05T05:21:39.341Z,100243.81
2023-03-05T05:24:42.334Z,100241.00
2023-03-05T05:27:45.042Z,100247.19
2023-03-05T05:30:47.963Z,100249.69
2023-03-05T05:33:50.685Z,100246.19
2023-03-05T05:36:53.775Z,100253.38
2023-03-05T05:39:56.445Z,100252.34
2023-03-05T05:42:59.375Z,100259.41
2023-03-05T05:46:04.189Z,100259.12
2023-03-05T05:49:07.185Z,100261.63
2023-03-05T05:52:10.010Z,100270.53
2023-03-05T05:55:13.626Z,100273.53
2023-03-05T05:58:16.332Z,100271.66
2023-03-05T06:01:19.531Z,100268.94
2023-03-05T06:04:22.658Z,100277.56
2023-03-05T06:07:25.216Z,100282.34
2023-03-05T06:10:28.370Z,100287.13
2023-03-05T06:13:31.008Z,100273.88
2023-03-05T06:16:35.444Z,100289.78
2023-03-05T06:19:38.041Z,100269.81
2023-03-05T06:22:41.366Z,100288.78
2023-03-05T06:25:43.914Z,100288.94
2023-03-05T06:28:46.861Z,100282.75
2023-03-05T06:31:49.511Z,100283.91
2023-03-05T06:34:52.515Z,100285.72
2023-03-05T06:37:55.136Z,100285.88
2023-03-05T06:41:02.210Z,100272.66
2023-03-05T06:44:05.462Z,100297.81
2023-03-05T06:47:10.636Z,100301.00
2023-03-05T06:50:13.545Z,100301.28
2023-03-05T06:53:16.497Z,100318.50
2023-03-05T06:56:20.161Z,100309.56
2023-03-05T06:59:23.534Z,100315.16
2023-03-05T07:02:26.279Z,100301.41
2023-03-05T07:05:29.304Z,100295.97
2023-03-05T07:08:32.651Z,100309.00
2023-03-05T07:11:35.802Z,100306.44
2023-03-05T07:14:39.130Z,100297.34
2023-03-05T07:17:42.069Z,100305.47
2023-03-05T07:20:44.780Z,100295.28
2023-03-05T07:23:48.185Z,100305.37
2023-03-05T07:26:50.851Z,100304.75
2023-03-05T07:29:53.868Z,100304.09
2023-03-05T07:32:56.506Z,100297.38
2023-03-05T07:35:59.576Z,100307.63
2023-03-05T07:39:05.013Z,100294.66
2023-03-05T07:42:08.014Z,100300.44
2023-03-05T07:45:19.450Z,100308.81
2023-03-05T07:48:22.468Z,100315.22
2023-03-05T07:51:26.892Z,100320.91
2023-03-05T07:54:29.879Z,100319.34
2023-03-05T07:57:32.589Z,100319.00
2023-03-05T08:00:35.561Z,100319.44
2023-03-05T08:03:39.416Z,100310.94
2023-03-05T08:06:42.391Z,100308.13
2023-03-05T08:09:45.313Z,100307.91
2023-03-05T08:12:47.937Z,100299.22
2023-03-05T08:15:50.794Z,100312.38
2023-03-05T08:18:57.941Z,100309.19
2023-03-05T08:22:00.942Z,100320.12
2023-03-05T08:25:04.532Z,100315.78
2023-03-05T08:28:07.442Z,100311.47
2023-03-05T08:31:11.402Z,100310.44
2023-03-05T08:34:14.293Z,100302.53
2023-03-05T08:37:16.862Z,100305.25
2023-03-05T08:40:20.478Z,100303.81
2023-03-05T08:43:23.200Z,100297.38
2023-03-05T08:46:26.151Z,100283.53
2023-03-05T08:49:29.096Z,100290.75
2023-03-05T08:52:31.989Z,100298.91
2023-03-05T08:55:35.084Z,100291.37
2023-03-05T08:58:38.076Z,100298.06
2023-03-05T09:01:40.829Z,100290.69
2023-03-05T09:04:44.003Z,100286.56
2023-03-05T09:07:46.702Z,100289.75
2023-03-05T09:10:49.819Z,100294.87
2023-03-05T09:13:52.385Z,100289.28
2023-03-05T09:16:56.585Z,100277.53
2023-03-05T09:19:59.286Z,100293.94
2023-03-05T09:23:02.584Z,100286.62
2023-03-05T09:26:06.677Z,100274.31
2023-03-05T09:29:09.948Z,100266.78
2023-03-05T09:32:12.631Z,100278.97
2023-03-05T09:35:15.587Z,100278.16
2023-03-05T09:38:19.380Z,100270.72
2023-03-05T09:41:53.286Z,100275.88
2023-03-05T09:45:17.584Z,100272.09
2023-03-05T09:48:44.372Z,100278.06
2023-03-05T09:51:52.130Z,100275.16
2023-03-05T09:54:57.787Z,100286.69
2023-03-05T09:58:11.395Z,100285.47
2023-03-05T10:01:39.000Z,100284.31
2023-03-05T10:05:00.364Z,100289.06
2023-03-05T10:08:05.321Z,100269.25
2023-03-05T10:11:22.344Z,100274.41
2023-03-05T10:14:35.006Z,100280.91
2023-03-05T10:17:55.696Z,100275.75
2023-03-05T10:21:22.192Z,100277.72
2023-03-05T10:24:57.215Z,100275.69
2023-03-05T10:28:18.017Z,100258.25
2023-03-05T10:31:39.542Z,100257.72
2023-03-05T10:34:54.271Z,100267.28
2023-03-05T10:38:09.266Z,100257.81
2023-03-05T10:41:38.792Z,100256.72
2023-03-05T10:45:01.721Z,100250.91
2023-03-05T10:48:55.649Z,100249.69
2023-03-05T10:52:09.836Z,100248.66
2023-03-05T10:55:21.488Z,100243.91
2023-03-05T10:58:25.513Z,100230.37
2023-03-05T11:01:31.026Z,100246.41
2023-03-05T11:04:39.880Z,100209.41
2023-03-05T11:07:42.550Z,100223.87
2023-03-05T11:10:45.810Z,100220.31
2023-03-05T11:13:48.276Z,100228.09
2023-03-05T11:16:51.262Z,100200.84
2023-03-05T11:19:54.238Z,100202.19
2023-03-05T11:23:17.202Z,100189.47
2023-03-05T11:26:23.281Z,100191.16
2023-03-05T11:29:31.561Z,100181.97
2023-03-05T11:32:34.393Z,100181.97
2023-03-05T11:35:39.935Z,100170.53
2023-03-05T11:38:58.837Z,100172.03
2023-03-05T11:42:06.947Z,100179.75
2023-03-05T11:45:19.430Z,100173.31
2023-03-05T11:48:28.673Z,100167.38
2023-03-05T11:51:57.888Z,100160.62
2023-03-05T11:55:16.093Z,100141.09
2023-03-05T11:58:50.057Z,100129.78
2023-03-05T12:01:55.608Z,100134.69
2023-03-05T12:05:00.135Z,100135.00
2023-03-05T12:08:03.405Z,100130.22
2023-03-05T12:11:16.132Z,100125.59
2023-03-05T12:14:44.781Z,100119.09
2023-03-05T12:17:54.615Z,100122.13
2023-03-05T12:21:08.288Z,100116.41
2023-03-05T12:24:26.018Z,100114.03
2023-03-05T12:27:37.010Z,100119.94
2023-03-05T12:30:43.481Z,100118.75
2023-03-05T12:33:46.783Z,100101.25
2023-03-05T12:36:49.701Z,100087.34
2023-03-05T12:40:00.910Z,100097.00
2023-03-05T12:43:23.338Z,100102.00
2023-03-05T12:46:29.152Z,100099.34
2023-03-05T12:49:39.776Z,100092.50
2023-03-05T12:52:46.046Z,100077.69
2023-03-05T12:56:01.105Z,100076.00
2023-03-05T12:59:04.449Z,100066.78
2023-03-05T13:02:21.594Z,100087.06
2023-03-05T13:05:37.494Z,100068.53
2023-03-05T13:08:40.511Z,100077.44
2023-03-05T13:11:48.139Z,100073.25
2023-03-05T13:15:04.596Z,100086.81
2023-03-05T13:18:20.523Z,100079.78
2023-03-05T13:21:30.838Z,100077.13
2023-03-05T13:24:33.536Z,100059.50
2023-03-05T13:27:36.525Z,100066.69
2023-03-05T13:30:44.407Z,100075.47
2023-03-05T13:33:57.014Z,100068.91
2023-03-05T13:37:07.561Z,100065.53
2023-03-05T13:40:23.962Z,100075.72
2023-03-05T13:43:26.896Z,100070.66
2023-03-05T13:46:42.179Z,100065.62
2023-03-05T13:49:47.267Z,100058.69
2023-03-05T13:52:50.661Z,100056.75
2023-03-05T13:55:59.767Z,100051.59
2023-03-05T13:59:02.766Z,100055.94
2023-03-05T14:02:17.315Z,100026.44
2023-03-05T14:05:21.339Z,100031.59
2023-03-05T14:08:26.640Z,100047.31
2023-03-05T14:11:30.141Z,100045.09
2023-03-05T14:14:37.664Z,100017.81
2023-03-05T14:17:42.842Z,100034.53
2023-03-05T14:21:05.703Z,100034.97
2023-03-05T14:24:15.118Z,100032.81
2023-03-05T14:27:21.500Z,100033.00
2023-03-05T14:30:25.630Z,100031.66
2023-03-05T14:33:31.254Z,100025.16
2023-03-05T14:36:34.936Z,100035.06
2023-03-05T14:39:46.243Z,100012.88
2023-03-05T14:43:01.281Z,100037.72
2023-03-05T14:46:04.808Z,100016.03
2023-03-05T14:49:08.516Z,99998.47
2023-03-05T14:52:17.188Z,100001.16
2023-03-05T14:55:24.084Z,100023.09
2023-03-05T14:58:35.725Z,100019.03
2023-03-05T15:01:39.306Z,100020.75
2023-03-05T15:04:41.951Z,100014.59
2023-03-05T15:07:46.119Z,100017.03
2023-03-05T15:10:50.390Z,100008.25
2023-03-05T15:13:53.634Z,100013.84
2023-03-05T15:16:56.461Z,100007.94
2023-03-05T15:19:59.684Z,100000.59
2023-03-05T15:23:02.616Z,100002.66
2023-03-05T15:26:07.665Z,100006.53
2023-03-05T15:29:10.626Z,100002.44
2023-03-05T15:32:14.194Z,100014.59
2023-03-05T15:35:17.731Z,100012.56
2023-03-05T15:38:21.274Z,100012.06
2023-03-05T15:41:24.082Z,100010.97
2023-03-05T15:44:27.913Z,100006.91
2023-03-05T15:47:33.380Z,100002.81
2023-03-05T15:50:36.803Z,100001.06
2023-03-05T15:53:39.735Z,99999.47
2023-03-05T15:56:42.891Z,99993.59
2023-03-05T15:59:46.166Z,99998.91
2023-03-05T16:02:49.121Z,99999.38
2023-03-05T16:05:53.851Z,99996.81
2023-03-05T16:09:02.365Z,100002.87
2023-03-05T16:12:10.183Z,100000.63
2023-03-05T16:15:16.706Z,99997.97
2023-03-05T16:18:21.477Z,100005.94
2023-03-05T16:21:24.710Z,100003.53
2023-03-05T16:24:27.970Z,100002.22
2023-03-05T16:27:31.031Z,99993.72
2023-03-05T16:30:34.325Z,99992.53
2023-03-05T16:33:38.240Z,100007.28
2023-03-05T16:36:48.509Z,100005.09
2023-03-05T16:39:51.579Z,100004.31
2023-03-05T16:42:54.724Z,100009.87
2023-03-05T16:45:57.777Z,99986.44
2023-03-05T16:49:00.973Z,100003.72
2023-03-05T16:52:17.785Z,100005.84
2023-03-05T16:55:21.807Z,100011.62
2023-03-05T16:58:24.682Z,100013.06
2023-03-05T17:01:30.323Z,100017.09
2023-03-05T17:04:33.642Z,100010.69
2023-03-05T17:07:36.834Z,100019.53
2023-03-05T17:10:39.887Z,100020.22
2023-03-05T17:13:43.629Z,100023.37
2023-03-05T17:16:46.746Z,100024.41
2023-03-05T17:19:50.086Z,100027.06
2023-03-05T17:22:53.139Z,100026.44
2023-03-05T17:25:56.582Z,100013.59
2023-03-05T17:29:00.171Z,100030.37
2023-03-05T17:32:03.936Z,100029.41
2023-03-05T17:35:08.192Z,100031.69
2023-03-05T17:38:11.451Z,100027.78
2023-03-05T17:41:15.885Z,100034.03
2023-03-05T17:44:19.167Z,100022.50
2023-03-05T17:47:23.556Z,100038.81
2023-03-05T17:50:26.939Z,100032.31
2023-03-05T17:53:30.339Z,100033.25
2023-03-05T17:56:33.690Z,100027.59
2023-03-05T17:59:36.788Z,100027.03
2023-03-05T18:02:40.694Z,100029.22
2023-03-05T18:05:44.392Z,100028.41
2023-03-05T18:08:48.324Z,100029.34
2023-03-05T18:11:52.012Z,100021.31
2023-03-05T18:14:54.930Z,100028.78
2023-03-05T18:17:58.762Z,100030.03
2023-03-05T18:21:02.492Z,100029.94
2023-03-05T18:24:06.449Z,100034.47
2023-03-05T18:27:09.543Z,100025.31
2023-03-05T18:30:12.959Z,100023.22
2023-03-05T18:33:20.292Z,100026.66
2023-03-05T18:36:23.558Z,100033.28
2023-03-05T18:39:29.280Z,100029.25
2023-03-05T18:42:32.486Z,100031.06
2023-03-05T18:45:36.090Z,100031.41
2023-03-05T18:48:39.444Z,100029.50
2023-03-05T18:51:42.984Z,100030.50
2023-03-05T18:54:46.215Z,100026.09
2023-03-05T18:57:49.366Z,100029.97
2023-03-05T19:00:52.550Z,100034.38
2023-03-05T19:03:56.103Z,100029.72
2023-03-05T19:06:59.426Z,100032.69
2023-03-05T19:10:07.317Z,100033.34
2023-03-05T19:13:35.836Z,100036.53
2023-03-05T19:16:43.935Z,100026.13
2023-03-05T19:19:54.629Z,100029.25
2023-03-05T19:22:59.553Z,100044.09
2023-03-05T19:26:03.901Z,100034.38
2023-03-05T19:29:08.372Z,100016.59
2023-03-05T19:32:14.731Z,100024.97
2023-03-05T19:35:18.275Z,100036.53
2023-03-05T19:38:22.826Z,100037.84
2023-03-05T19:41:27.729Z,100049.88
2023-03-05T19:44:32.850Z,100046.12
2023-03-05T19:47:35.844Z,100049.50
2023-03-05T19:50:40.969Z,100043.31
2023-03-05T19:53:44.205Z,100054.41
2023-03-05T19:56:48.318Z,100056.31
2023-03-05T19:59:54.943Z,100053.59
2023-03-05T20:02:58.351Z,100054.84
2023-03-05T20:06:02.140Z,100063.22
2023-03-05T20:09:07.914Z,100055.31
2023-03-05T20:12:11.740Z,100047.81
2023-03-05T20:15:14.995Z,100055.38
2023-03-05T20:18:19.198Z,100055.28
2023-03-05T20:21:25.315Z,100046.91
2023-03-05T20:24:28.929Z,100062.50
2023-03-05T20:27:33.768Z,100055.38
2023-03-05T20:30:37.107Z,100068.63
2023-03-05T20:33:40.223Z,100056.63
2023-03-05T20:36:43.816Z,100060.91
2023-03-05T20:39:46.695Z,100054.59
2023-03-05T20:42:52.642Z,100054.91
2023-03-05T20:45:57.512Z,100051.44
2023-03-05T20:49:02.823Z,100061.94
2023-03-05T20:52:05.452Z,100059.56
2023-03-05T20:55:10.018Z,100061.16
2023-03-05T20:58:13.354Z,100063.84
2023-03-05T21:01:17.330Z,100053.78
2023-03-05T21:04:20.524Z,100069.34
2023-03-05T21:07:25.927Z,100056.84
2023-03-05T21:10:30.629Z,100059.56
2023-03-05T21:13:33.859Z,100029.03
2023-03-05T21:16:36.781Z,100041.47
2023-03-05T21:19:39.990Z,100046.09
2023-03-05T21:22:43.017Z,100045.88
2023-03-05T21:25:46.400Z,100035.12
2023-03-05T21:28:49.419Z,100041.56
2023-03-05T21:31:52.389Z,100042.59
2023-03-05T21:34:55.234Z,100041.13
2023-03-05T21:38:00.678Z,100040.31
2023-03-05T21:41:04.488Z,100016.66
2023-03-05T21:44:07.517Z,100030.31
2023-03-05T21:47:10.444Z,100038.50
2023-03-05T21:50:15.539Z,100035.75
2023-03-05T21:53:19.911Z,100029.88
2023-03-05T21:56:25.195Z,100029.88
2023-03-05T21:59:28.145Z,100028.03
2023-03-05T22:02:31.396Z,100030.75
2023-03-05T22:05:34.329Z,100024.72
2023-03-05T22:08:37.033Z,100028.94
2023-03-05T22:11:43.907Z,100020.22
2023-03-05T22:14:46.549Z,100014.22
2023-03-05T22:17:50.277Z,100021.09
2023-03-05T22:20:53.922Z,100010.72
2023-03-05T22:23:58.378Z,100016.34
2023-03-05T22:27:02.051Z,100014.34
2023-03-05T22:30:14.196Z,100007.78
2023-03-05T22:33:16.872Z,99989.88
2023-03-05T22:36:20.461Z,99999.03
2023-03-05T22:39:23.023Z,100003.41
2023-03-05T22:42:26.059Z,100001.38
2023-03-05T22:45:29.122Z,99996.62
2023-03-05T22:48:32.027Z,99991.91
2023-03-05T22:51:34.629Z,99978.69
2023-03-05T22:54:37.534Z,99990.53
2023-03-05T22:57:40.990Z,99996.00
2023-03-05T23:00:44.156Z,100002.66
2023-03-05T23:04:10.375Z,99993.97
2023-03-05T23:07:32.855Z,99995.91
2023-03-05T23:10:35.520Z,99996.44
2023-03-05T23:13:40.541Z,99990.81
2023-03-05T23:16:43.101Z,99998.50
2023-03-05T23:19:46.249Z,99996.75
2023-03-05T23:22:49.798Z,99999.47
2023-03-05T23:25:52.937Z,99999.16
2023-03-05T23:28:55.561Z,99997.34
2023-03-05T23:31:58.528Z,99991.69
2023-03-05T23:35:01.209Z,99996.84
2023-03-05T23:38:08.399Z,99988.28
2023-03-05T23:41:11.048Z,99997.91
2023-03-05T23:44:13.948Z,99996.25
2023-03-05T23:47:16.487Z,99990.84
2023-03-05T23:50:25.296Z,99983.19
2023-03-05T23:53:31.281Z,99995.41
2023-03-05T23:56:34.223Z,100003.81
2023-03-05T23:59:37.017Z,100002.34
